sensor_id;sensor_type;location;lat;lon;timestamp;pressure;altitude;pressure_sealevel;temperature;humidity
48352;BME280;34163;49.314;6.752;2023-12-29T00:02:17;99617.25;;;7.61;100.00
48352;BME280;34163;49.314;6.752;2023-12-29T00:04:45;99605.28;;;7.51;100.00
48352;BME280;34163;49.314;6.752;2023-12-29T00:07:16;99609.56;;;7.55;100.00
48352;BME280;34163;49.314;6.752;2023-12-29T00:09:41;99602.47;;;7.57;100.00
48352;BME280;34163;49.314;6.752;2023-12-29T00:12:07;99591.59;;;7.66;100.00
48352;BME280;34163;49.314;6.752;2023-12-29T00:14:33;99593.94;;;7.49;100.00
48352;BME280;34163;49.314;6.752;2023-12-29T00:16:58;99584.16;;;7.52;100.00
48352;BME280;34163;49.314;6.752;2023-12-29T00:19:26;99586.22;;;7.42;100.00
48352;BME280;34163;49.314;6.752;2023-12-29T00:21:51;99588.03;;;7.42;100.00
48352;BME280;34163;49.314;6.752;2023-12-29T00:24:19;99585.44;;;7.40;100.00
48352;BME280;34163;49.314;6.752;2023-12-29T00:26:45;99575.19;;;7.31;100.00
48352;BME280;34163;49.314;6.752;2023-12-29T00:29:10;99581.09;;;7.38;100.00
48352;BME280;34163;49.314;6.752;2023-12-29T00:31:35;99576.69;;;7.38;100.00
48352;BME280;34163;49.314;6.752;2023-12-29T00:34:00;99580.22;;;7.39;100.00
48352;BME280;34163;49.314;6.752;2023-12-29T00:36:26;99580.22;;;7.39;100.00
48352;BME280;34163;49.314;6.752;2023-12-29T00:38:51;99575.09;;;7.34;100.00
48352;BME280;34163;49.314;6.752;2023-12-29T00:41:16;99568.72;;;7.40;100.00
48352;BME280;34163;49.314;6.752;2023-12-29T00:43:41;99578.13;;;7.49;100.00
48352;BME280;34163;49.314;6.752;2023-12-29T06:17:26;99497.06;;;8.04;100.00
48352;BME280;34163;49.314;6.752;2023-12-29T06:19:51;99499.88;;;7.99;100.00
48352;BME280;34163;49.314;6.752;2023-12-29T06:22:16;99492.06;;;8.20;100.00
48352;BME280;34163;49.314;6.752;2023-12-29T06:24:42;99481.34;;;8.01;100.00
48352;BME280;34163;49.314;6.752;2023-12-29T06:27:10;99486.34;;;8.31;100.00
48352;BME280;34163;49.314;6.752;2023-12-29T06:29:36;99494.50;;;8.25;100.00
48352;BME280;34163;49.314;6.752;2023-12-29T06:32:02;99494.81;;;8.17;100.00
48352;BME280;34163;49.314;6.752;2023-12-29T06:34:27;99496.00;;;8.08;100.00
48352;BME280;34163;49.314;6.752;2023-12-29T06:36:53;99507.06;;;7.94;100.00
48352;BME280;34163;49.314;6.752;2023-12-29T06:39:18;99509.53;;;7.99;100.00
48352;BME280;34163;49.314;6.752;2023-12-29T06:41:43;99502.34;;;8.04;100.00
48352;BME280;34163;49.314;6.752;2023-12-29T06:44:08;99498.81;;;8.04;100.00
48352;BME280;34163;49.314;6.752;2023-12-29T06:46:34;99489.38;;;7.98;100.00
48352;BME280;34163;49.314;6.752;2023-12-29T06:48:59;99483.25;;;7.96;100.00
48352;BME280;34163;49.314;6.752;2023-12-29T06:51:24;99479.59;;;8.00;100.00
48352;BME280;34163;49.314;6.752;2023-12-29T06:53:49;99485.91;;;8.19;100.00
48352;BME280;34163;49.314;6.752;2023-12-29T06:56:15;99479.66;;;7.98;100.00
48352;BME280;34163;49.314;6.752;2023-12-29T06:58:41;99488.53;;;7.96;100.00
48352;BME280;34163;49.314;6.752;2023-12-29T07:01:06;99482.53;;;7.92;100.00
48352;BME280;34163;49.314;6.752;2023-12-29T07:03:31;99486.25;;;7.87;100.00
48352;BME280;34163;49.314;6.752;2023-12-29T07:05:57;99485.78;;;7.99;100.00
48352;BME280;34163;49.314;6.752;2023-12-29T07:08:22;99475.28;;;7.97;100.00
48352;BME280;34163;49.314;6.752;2023-12-29T07:10:47;99476.13;;;7.99;100.00
48352;BME280;34163;49.314;6.752;2023-12-29T07:13:15;99478.75;;;7.99;100.00
48352;BME280;34163;49.314;6.752;2023-12-29T07:15:40;99479.59;;;8.00;100.00
48352;BME280;34163;49.314;6.752;2023-12-29T07:18:05;99478.66;;;8.03;100.00
48352;BME280;34163;49.314;6.752;2023-12-29T07:20:31;99485.97;;;7.94;100.00
48352;BME280;34163;49.314;6.752;2023-12-29T07:22:56;99483.91;;;8.03;100.00
48352;BME280;34163;49.314;6.752;2023-12-29T07:25:21;99485.16;;;8.16;100.00
48352;BME280;34163;49.314;6.752;2023-12-29T07:27:46;99482.59;;;8.14;100.00
48352;BME280;34163;49.314;6.752;2023-12-29T07:30:12;99486.47;;;8.28;100.00
48352;BME280;34163;49.314;6.752;2023-12-29T07:32:37;99490.34;;;8.19;100.00
48352;BME280;34163;49.314;6.752;2023-12-29T07:35:02;99489.22;;;8.25;100.00
48352;BME280;34163;49.314;6.752;2023-12-29T07:37:28;99501.81;;;8.18;100.00
48352;BME280;34163;49.314;6.752;2023-12-29T07:39:53;99492.47;;;8.09;100.00
48352;BME280;34163;49.314;6.752;2023-12-29T07:42:18;99507.06;;;8.18;100.00
48352;BME280;34163;49.314;6.752;2023-12-29T07:44:44;99500.22;;;8.14;100.00
48352;BME280;34163;49.314;6.752;2023-12-29T07:47:09;99500.38;;;8.09;100.00
48352;BME280;34163;49.314;6.752;2023-12-29T07:49:36;99503.59;;;8.17;100.00
48352;BME280;34163;49.314;6.752;2023-12-29T07:52:01;99500.38;;;8.33;100.00
48352;BME280;34163;49.314;6.752;2023-12-29T07:54:27;99499.44;;;8.34;100.00
48352;BME280;34163;49.314;6.752;2023-12-29T07:56:52;99503.44;;;8.46;100.00
48352;BME280;34163;49.314;6.752;2023-12-29T07:59:17;99508.34;;;8.55;100.00
48352;BME280;34163;49.314;6.752;2023-12-29T08:01:43;99501.06;;;8.62;100.00
48352;BME280;34163;49.314;6.752;2023-12-29T08:04:08;99500.84;;;8.44;100.00
48352;BME280;34163;49.314;6.752;2023-12-29T08:06:33;99496.63;;;8.39;100.00
48352;BME280;34163;49.314;6.752;2023-12-29T08:08:58;99492.13;;;8.41;100.00
48352;BME280;34163;49.314;6.752;2023-12-29T08:11:24;99494.56;;;8.47;100.00
48352;BME280;34163;49.314;6.752;2023-12-29T08:13:49;99497.03;;;8.51;100.00
48352;BME280;34163;49.314;6.752;2023-12-29T08:16:15;99491.94;;;8.47;100.00
48352;BME280;34163;49.314;6.752;2023-12-29T08:18:42;99493.44;;;8.54;100.00
48352;BME280;34163;49.314;6.752;2023-12-29T09:00:06;99516.31;;;8.53;100.00
48352;BME280;34163;49.314;6.752;2023-12-29T09:02:31;99522.78;;;8.46;100.00
48352;BME280;34163;49.314;6.752;2023-12-29T09:04:57;99518.44;;;8.67;100.00
48352;BME280;34163;49.314;6.752;2023-12-29T09:07:22;99520.69;;;8.54;100.00
48352;BME280;34163;49.314;6.752;2023-12-29T09:09:47;99515.84;;;8.42;100.00
48352;BME280;34163;49.314;6.752;2023-12-29T09:12:12;99519.66;;;8.59;100.00
48352;BME280;34163;49.314;6.752;2023-12-29T09:14:38;99523.59;;;8.70;100.00
48352;BME280;34163;49.314;6.752;2023-12-29T09:17:03;99518.50;;;8.66;100.00
48352;BME280;34163;49.314;6.752;2023-12-29T09:19:30;99518.47;;;8.42;100.00
48352;BME280;34163;49.314;6.752;2023-12-29T09:21:55;99522.06;;;8.41;100.00
48352;BME280;34163;49.314;6.752;2023-12-29T09:24:20;99513.47;;;8.36;100.00
48352;BME280;34163;49.314;6.752;2023-12-29T09:26:45;99510.63;;;8.41;100.00
48352;BME280;34163;49.314;6.752;2023-12-29T09:29:11;99500.47;;;8.53;100.00
48352;BME280;34163;49.314;6.752;2023-12-29T09:31:36;99513.81;;;8.50;100.00
48352;BME280;34163;49.314;6.752;2023-12-29T09:34:01;99510.06;;;8.56;100.00
48352;BME280;34163;49.314;6.752;2023-12-29T09:36:26;99515.19;;;8.61;100.00
48352;BME280;34163;49.314;6.752;2023-12-29T09:38:52;99509.19;;;8.79;100.00
48352;BME280;34163;49.314;6.752;2023-12-29T09:41:17;99510.69;;;8.85;100.00
48352;BME280;34163;49.314;6.752;2023-12-29T09:43:43;99522.00;;;8.66;100.00
48352;BME280;34163;49.314;6.752;2023-12-29T09:46:10;99520.16;;;8.68;100.00
48352;BME280;34163;49.314;6.752;2023-12-29T09:48:37;99529.78;;;8.69;100.00
48352;BME280;34163;49.314;6.752;2023-12-29T09:51:05;99528.94;;;8.69;100.00
48352;BME280;34163;49.314;6.752;2023-12-29T09:53:32;99530.97;;;8.62;100.00
48352;BME280;34163;49.314;6.752;2023-12-29T09:55:58;99537.31;;;8.57;100.00
48352;BME280;34163;49.314;6.752;2023-12-29T09:58:24;99540.28;;;8.49;100.00
48352;BME280;34163;49.314;6.752;2023-12-29T10:00:50;99534.34;;;8.66;100.00
48352;BME280;34163;49.314;6.752;2023-12-29T10:03:16;99536.69;;;8.73;100.00
48352;BME280;34163;49.314;6.752;2023-12-29T10:05:41;99537.53;;;8.74;100.00
48352;BME280;34163;49.314;6.752;2023-12-29T10:08:07;99535.34;;;8.63;100.00
48352;BME280;34163;49.314;6.752;2023-12-29T10:10:35;99542.16;;;8.69;100.00
48352;BME280;34163;49.314;6.752;2023-12-29T10:13:01;99539.16;;;8.78;100.00
48352;BME280;34163;49.314;6.752;2023-12-29T10:15:35;99544.56;;;8.75;100.00
48352;BME280;34163;49.314;6.752;2023-12-29T10:18:21;99546.84;;;8.84;100.00
48352;BME280;34163;49.314;6.752;2023-12-29T10:25:43;99532.00;;;8.80;100.00
48352;BME280;34163;49.314;6.752;2023-12-29T10:28:09;99534.53;;;8.83;100.00
48352;BME280;34163;49.314;6.752;2023-12-29T10:30:34;99525.59;;;8.87;100.00
48352;BME280;34163;49.314;6.752;2023-12-29T10:33:00;99520.78;;;8.97;100.00
48352;BME280;34163;49.314;6.752;2023-12-29T10:35:25;99519.03;;;8.74;100.00
48352;BME280;34163;49.314;6.752;2023-12-29T10:37:51;99523.25;;;8.80;100.00
48352;BME280;34163;49.314;6.752;2023-12-29T10:40:17;99525.63;;;8.64;100.00
48352;BME280;34163;49.314;6.752;2023-12-29T10:42:55;99518.59;;;8.63;100.00
48352;BME280;34163;49.314;6.752;2023-12-29T10:45:20;99518.94;;;8.77;100.00
48352;BME280;34163;49.314;6.752;2023-12-29T10:47:46;99522.13;;;8.63;100.00
48352;BME280;34163;49.314;6.752;2023-12-29T10:50:11;99511.34;;;8.68;100.00
48352;BME280;34163;49.314;6.752;2023-12-29T10:52:37;99513.28;;;8.86;100.00
48352;BME280;34163;49.314;6.752;2023-12-29T10:55:09;99507.25;;;8.83;100.00
48352;BME280;34163;49.314;6.752;2023-12-29T10:57:36;99508.81;;;8.66;100.00
48352;BME280;34163;49.314;6.752;2023-12-29T11:00:02;99508.94;;;8.63;100.00
48352;BME280;34163;49.314;6.752;2023-12-29T11:02:28;99512.41;;;8.64;100.00
48352;BME280;34163;49.314;6.752;2023-12-29T11:07:32;99499.63;;;8.75;100.00
48352;BME280;34163;49.314;6.752;2023-12-29T11:10:00;99511.00;;;8.77;100.00
48352;BME280;34163;49.314;6.752;2023-12-29T11:12:25;99499.81;;;8.70;100.00
48352;BME280;34163;49.314;6.752;2023-12-29T11:14:51;99498.16;;;8.68;100.00
48352;BME280;34163;49.314;6.752;2023-12-29T11:17:16;99505.53;;;8.60;100.00
48352;BME280;34163;49.314;6.752;2023-12-29T11:19:42;99504.94;;;8.75;100.00
48352;BME280;34163;49.314;6.752;2023-12-29T11:22:08;99499.63;;;8.53;100.00
48352;BME280;34163;49.314;6.752;2023-12-29T11:24:33;99506.47;;;8.59;100.00
48352;BME280;34163;49.314;6.752;2023-12-29T11:26:59;99498.03;;;8.71;100.00
48352;BME280;34163;49.314;6.752;2023-12-29T11:29:24;99502.41;;;8.72;100.00
48352;BME280;34163;49.314;6.752;2023-12-29T11:31:49;99506.28;;;8.63;100.00
48352;BME280;34163;49.314;6.752;2023-12-29T11:36:42;99503.53;;;8.66;100.00
48352;BME280;34163;49.314;6.752;2023-12-29T11:41:42;99506.59;;;8.56;100.00
48352;BME280;34163;49.314;6.752;2023-12-29T11:44:08;99501.41;;;8.52;100.00
48352;BME280;34163;49.314;6.752;2023-12-29T11:46:33;99498.16;;;8.68;100.00
48352;BME280;34163;49.314;6.752;2023-12-29T11:49:00;99498.53;;;8.59;100.00
48352;BME280;34163;49.314;6.752;2023-12-29T11:51:37;99497.13;;;8.72;100.00
48352;BME280;34163;49.314;6.752;2023-12-29T11:54:04;99498.78;;;8.75;100.00
48352;BME280;34163;49.314;6.752;2023-12-29T11:56:39;99489.00;;;8.77;100.00
48352;BME280;34163;49.314;6.752;2023-12-29T12:01:40;99494.00;;;8.84;100.00
48352;BME280;34163;49.314;6.752;2023-12-29T12:04:50;99483.84;;;8.73;100.00
48352;BME280;34163;49.314;6.752;2023-12-29T12:06:53;99483.66;;;8.78;100.00
48352;BME280;34163;49.314;6.752;2023-12-29T12:09:21;99477.47;;;8.79;100.00
48352;BME280;34163;49.314;6.752;2023-12-29T12:11:48;99483.66;;;8.78;100.00
48352;BME280;34163;49.314;6.752;2023-12-29T12:15:00;99487.75;;;8.65;100.00
48352;BME280;34163;49.314;6.752;2023-12-29T12:17:00;99483.66;;;8.78;100.00
48352;BME280;34163;49.314;6.752;2023-12-29T12:19:28;99482.41;;;8.87;100.00
48352;BME280;34163;49.314;6.752;2023-12-29T12:21:57;99477.78;;;8.94;100.00
48352;BME280;34163;49.314;6.752;2023-12-29T12:24:24;99486.19;;;8.81;100.00
48352;BME280;34163;49.314;6.752;2023-12-29T12:26:50;99483.44;;;8.84;100.00
48352;BME280;34163;49.314;6.752;2023-12-29T12:29:16;99483.19;;;8.90;100.00
48352;BME280;34163;49.314;6.752;2023-12-29T12:34:18;99485.66;;;8.73;100.00
48352;BME280;34163;49.314;6.752;2023-12-29T12:36:50;99495.16;;;8.77;100.00
48352;BME280;34163;49.314;6.752;2023-12-29T12:39:15;99486.56;;;8.72;100.00
48352;BME280;34163;49.314;6.752;2023-12-29T12:41:41;99475.38;;;8.65;100.00
48352;BME280;34163;49.314;6.752;2023-12-29T12:46:34;99474.84;;;8.79;100.00
48352;BME280;34163;49.314;6.752;2023-12-29T12:49:03;99465.59;;;8.89;100.00
48352;BME280;34163;49.314;6.752;2023-12-29T12:51:28;99464.06;;;8.84;100.00
48352;BME280;34163;49.314;6.752;2023-12-29T12:53:54;99450.00;;;8.83;100.00
48352;BME280;34163;49.314;6.752;2023-12-29T12:56:20;99447.09;;;8.89;100.00
48352;BME280;34163;49.314;6.752;2023-12-29T12:58:46;99449.28;;;8.80;100.00
48352;BME280;34163;49.314;6.752;2023-12-29T13:01:11;99449.75;;;8.89;100.00
48352;BME280;34163;49.314;6.752;2023-12-29T13:03:38;99446.66;;;9.00;100.00
48352;BME280;34163;49.314;6.752;2023-12-29T13:06:03;99447.50;;;9.01;100.00
48352;BME280;34163;49.314;6.752;2023-12-29T13:08:29;99449.06;;;9.06;100.00
48352;BME280;34163;49.314;6.752;2023-12-29T13:10:55;99450.09;;;9.02;100.00
48352;BME280;34163;49.314;6.752;2023-12-29T13:13:21;99455.84;;;9.12;100.00
48352;BME280;34163;49.314;6.752;2023-12-29T13:15:49;99457.09;;;9.03;100.00
48352;BME280;34163;49.314;6.752;2023-12-29T13:18:14;99455.38;;;9.02;100.00
48352;BME280;34163;49.314;6.752;2023-12-29T13:20:45;99444.09;;;8.99;100.00
48352;BME280;34163;49.314;6.752;2023-12-29T13:23:11;99451.06;;;8.79;100.00
48352;BME280;34163;49.314;6.752;2023-12-29T13:25:36;99441.41;;;8.78;100.00
48352;BME280;34163;49.314;6.752;2023-12-29T13:28:04;99444.47;;;8.89;100.00
48352;BME280;34163;49.314;6.752;2023-12-29T13:30:31;99430.22;;;8.94;100.00
48352;BME280;34163;49.314;6.752;2023-12-29T13:32:56;99429.38;;;8.91;100.00
48352;BME280;34163;49.314;6.752;2023-12-29T13:35:30;99433.44;;;9.00;100.00
48352;BME280;34163;49.314;6.752;2023-12-29T13:40:35;99447.06;;;9.12;100.00
48352;BME280;34163;49.314;6.752;2023-12-29T13:43:03;99445.41;;;9.09;100.00
48352;BME280;34163;49.314;6.752;2023-12-29T13:45:29;99442.50;;;9.15;100.00
48352;BME280;34163;49.314;6.752;2023-12-29T13:47:57;99439.72;;;9.18;100.00
48352;BME280;34163;49.314;6.752;2023-12-29T13:50:24;99434.75;;;9.11;100.00
48352;BME280;34163;49.314;6.752;2023-12-29T13:52:49;99436.31;;;9.16;100.00
48352;BME280;34163;49.314;6.752;2023-12-29T13:55:21;99429.81;;;9.23;100.00
48352;BME280;34163;49.314;6.752;2023-12-29T13:57:47;99435.16;;;9.01;100.00
48352;BME280;34163;49.314;6.752;2023-12-29T14:00:25;99437.91;;;8.98;100.00
48352;BME280;34163;49.314;6.752;2023-12-29T14:08:16;99442.81;;;9.07;100.00
48352;BME280;34163;49.314;6.752;2023-12-29T14:10:43;99436.75;;;9.05;100.00
48352;BME280;34163;49.314;6.752;2023-12-29T14:13:12;99438.00;;;9.17;100.00
48352;BME280;34163;49.314;6.752;2023-12-29T14:15:41;99430.38;;;9.11;100.00
48352;BME280;34163;49.314;6.752;2023-12-29T14:20:34;99430.44;;;9.09;100.00
48352;BME280;34163;49.314;6.752;2023-12-29T14:23:03;99441.38;;;9.00;100.00
48352;BME280;34163;49.314;6.752;2023-12-29T14:25:29;99431.94;;;9.15;100.00
48352;BME280;34163;49.314;6.752;2023-12-29T14:27:58;99426.00;;;9.10;100.00
48352;BME280;34163;49.314;6.752;2023-12-29T14:30:24;99433.00;;;9.11;100.00
48352;BME280;34163;49.314;6.752;2023-12-29T14:32:49;99422.22;;;8.95;100.00
48352;BME280;34163;49.314;6.752;2023-12-29T14:35:15;99428.75;;;9.07;100.00
48352;BME280;34163;49.314;6.752;2023-12-29T14:37:43;99429.81;;;9.03;100.00
48352;BME280;34163;49.314;6.752;2023-12-29T14:40:10;99429.81;;;9.03;100.00
48352;BME280;34163;49.314;6.752;2023-12-29T14:42:35;99431.72;;;8.99;100.00
48352;BME280;34163;49.314;6.752;2023-12-29T14:45:01;99429.34;;;8.93;100.00
48352;BME280;34163;49.314;6.752;2023-12-29T14:47:26;99427.63;;;8.92;100.00
48352;BME280;34163;49.314;6.752;2023-12-29T14:49:51;99427.97;;;9.05;100.00
48352;BME280;34163;49.314;6.752;2023-12-29T14:52:16;99424.25;;;9.09;100.00
48352;BME280;34163;49.314;6.752;2023-12-29T14:54:42;99429.81;;;9.03;100.00
48352;BME280;34163;49.314;6.752;2023-12-29T14:57:07;99429.53;;;9.09;100.00
48352;BME280;34163;49.314;6.752;2023-12-29T14:59:32;99423.28;;;9.12;100.00
48352;BME280;34163;49.314;6.752;2023-12-29T15:01:58;99416.19;;;9.12;100.00
48352;BME280;34163;49.314;6.752;2023-12-29T15:04:23;99423.47;;;9.27;100.00
48352;BME280;34163;49.314;6.752;2023-12-29T15:06:48;99424.81;;;8.97;100.00
48352;BME280;34163;49.314;6.752;2023-12-29T15:09:14;99421.59;;;8.88;100.00
48352;BME280;34163;49.314;6.752;2023-12-29T15:11:40;99425.91;;;8.91;100.00
48352;BME280;34163;49.314;6.752;2023-12-29T15:14:05;99427.50;;;9.16;100.00
48352;BME280;34163;49.314;6.752;2023-12-29T15:16:31;99416.78;;;9.19;100.00
48352;BME280;34163;49.314;6.752;2023-12-29T15:18:56;99423.75;;;9.21;100.00
48352;BME280;34163;49.314;6.752;2023-12-29T15:21:21;99415.75;;;9.23;100.00
48352;BME280;34163;49.314;6.752;2023-12-29T15:23:46;99422.16;;;9.17;100.00
48352;BME280;34163;49.314;6.752;2023-12-29T15:26:14;99418.84;;;9.12;100.00
48352;BME280;34163;49.314;6.752;2023-12-29T15:28:42;99413.94;;;9.23;100.00
48352;BME280;34163;49.314;6.752;2023-12-29T15:31:08;99413.16;;;9.21;100.00
48352;BME280;34163;49.314;6.752;2023-12-29T15:33:35;99413.03;;;9.24;100.00
48352;BME280;34163;49.314;6.752;2023-12-29T15:36:01;99408.28;;;9.33;100.00
48352;BME280;34163;49.314;6.752;2023-12-29T15:38:26;99412.78;;;9.31;100.00
48352;BME280;34163;49.314;6.752;2023-12-29T15:40:51;99408.56;;;14.25;100.00
48352;BME280;34163;49.314;6.752;2023-12-29T15:43:16;99392.69;;;11.98;100.00
48352;BME280;34163;49.314;6.752;2023-12-29T15:45:42;99401.78;;;10.36;100.00
48352;BME280;34163;49.314;6.752;2023-12-29T15:48:07;99412.00;;;9.87;100.00
48352;BME280;34163;49.314;6.752;2023-12-29T15:50:32;99402.56;;;9.62;100.00
48352;BME280;34163;49.314;6.752;2023-12-29T15:52:57;99405.63;;;9.33;100.00
48352;BME280;34163;49.314;6.752;2023-12-29T15:55:23;99392.41;;;9.12;100.00
48352;BME280;34163;49.314;6.752;2023-12-29T15:57:48;99405.63;;;9.33;100.00
48352;BME280;34163;49.314;6.752;2023-12-29T16:00:18;99395.97;;;9.32;100.00
48352;BME280;34163;49.314;6.752;2023-12-29T16:02:44;99394.66;;;9.42;100.00
48352;BME280;34163;49.314;6.752;2023-12-29T16:05:10;99393.66;;;9.44;100.00
48352;BME280;34163;49.314;6.752;2023-12-29T16:07:37;99395.69;;;9.38;100.00
48352;BME280;34163;49.314;6.752;2023-12-29T16:10:03;99396.00;;;9.11;100.00
48352;BME280;34163;49.314;6.752;2023-12-29T16:12:28;99394.53;;;9.04;100.00
48352;BME280;34163;49.314;6.752;2023-12-29T16:14:53;99387.81;;;8.97;100.00
48352;BME280;34163;49.314;6.752;2023-12-29T16:17:19;99391.38;;;9.16;100.00
48352;BME280;34163;49.314;6.752;2023-12-29T16:19:44;99387.75;;;9.38;100.00
48352;BME280;34163;49.314;6.752;2023-12-29T16:22:11;99392.75;;;9.25;100.00
48352;BME280;34163;49.314;6.752;2023-12-29T16:24:39;99378.09;;;9.18;100.00
48352;BME280;34163;49.314;6.752;2023-12-29T16:27:07;99382.69;;;9.33;100.00
48352;BME280;34163;49.314;6.752;2023-12-29T16:29:32;99385.69;;;9.25;100.00
48352;BME280;34163;49.314;6.752;2023-12-29T16:31:58;99388.25;;;9.06;100.00
48352;BME280;34163;49.314;6.752;2023-12-29T16:34:23;99389.13;;;9.27;100.00
48352;BME280;34163;49.314;6.752;2023-12-29T16:36:58;99375.78;;;9.10;100.00
48352;BME280;34163;49.314;6.752;2023-12-29T16:39:23;99383.31;;;9.19;100.00
48352;BME280;34163;49.314;6.752;2023-12-29T16:41:49;99384.09;;;9.21;100.00
48352;BME280;34163;49.314;6.752;2023-12-29T16:44:14;99372.91;;;9.35;100.00
48352;BME280;34163;49.314;6.752;2023-12-29T16:46:40;99368.63;;;9.12;100.00
48352;BME280;34163;49.314;6.752;2023-12-29T16:49:05;99372.72;;;9.19;100.00
48352;BME280;34163;49.314;6.752;2023-12-29T16:51:33;99371.91;;;9.38;100.00
48352;BME280;34163;49.314;6.752;2023-12-29T16:53:58;99368.88;;;9.26;100.00
48352;BME280;34163;49.314;6.752;2023-12-29T16:56:23;99360.47;;;9.37;100.00
48352;BME280;34163;49.314;6.752;2023-12-29T16:58:48;99361.19;;;9.41;100.00
48352;BME280;34163;49.314;6.752;2023-12-29T17:01:16;99369.00;;;9.44;100.00
48352;BME280;34163;49.314;6.752;2023-12-29T17:03:42;99376.03;;;10.21;100.00
48352;BME280;34163;49.314;6.752;2023-12-29T17:06:07;99367.66;;;9.92;100.00
48352;BME280;34163;49.314;6.752;2023-12-29T17:08:33;99366.31;;;9.64;100.00
48352;BME280;34163;49.314;6.752;2023-12-29T17:11:00;99364.81;;;9.59;100.00
48352;BME280;34163;49.314;6.752;2023-12-29T17:13:27;99369.59;;;9.70;100.00
48352;BME280;34163;49.314;6.752;2023-12-29T17:15:54;99374.09;;;9.68;100.00
48352;BME280;34163;49.314;6.752;2023-12-29T17:18:19;99373.03;;;9.53;100.00
48352;BME280;34163;49.314;6.752;2023-12-29T17:20:45;99368.50;;;9.55;100.00
48352;BME280;34163;49.314;6.752;2023-12-29T17:23:12;99372.50;;;9.63;100.00
48352;BME280;34163;49.314;6.752;2023-12-29T17:25:38;99364.28;;;9.70;100.00
48352;BME280;34163;49.314;6.752;2023-12-29T17:28:03;99363.22;;;9.55;100.00
48352;BME280;34163;49.314;6.752;2023-12-29T17:30:28;99363.56;;;9.47;100.00
48352;BME280;34163;49.314;6.752;2023-12-29T17:32:53;99369.38;;;9.55;100.00
48352;BME280;34163;49.314;6.752;2023-12-29T17:35:21;99363.56;;;9.47;100.00
48352;BME280;34163;49.314;6.752;2023-12-29T17:37:48;99374.78;;;9.52;100.00
48352;BME280;34163;49.314;6.752;2023-12-29T17:40:14;99374.78;;;9.52;100.00
48352;BME280;34163;49.314;6.752;2023-12-29T17:42:39;99366.38;;;9.63;100.00
48352;BME280;34163;49.314;6.752;2023-12-29T17:45:04;99372.66;;;9.60;100.00
48352;BME280;34163;49.314;6.752;2023-12-29T17:47:31;99364.34;;;9.49;100.00
48352;BME280;34163;49.314;6.752;2023-12-29T17:49:56;99371.09;;;9.56;100.00
48352;BME280;34163;49.314;6.752;2023-12-29T17:52:21;99380.25;;;9.68;100.00
48352;BME280;34163;49.314;6.752;2023-12-29T17:54:49;99372.66;;;9.60;100.00
48352;BME280;34163;49.314;6.752;2023-12-29T17:57:14;99369.09;;;9.61;100.00
48352;BME280;34163;49.314;6.752;2023-12-29T17:59:40;99372.94;;;9.54;100.00
48352;BME280;34163;49.314;6.752;2023-12-29T18:02:05;99369.88;;;9.63;100.00
48352;BME280;34163;49.314;6.752;2023-12-29T18:04:30;99367.16;;;9.65;100.00
48352;BME280;34163;49.314;6.752;2023-12-29T18:06:55;99370.72;;;9.45;100.00
48352;BME280;34163;49.314;6.752;2023-12-29T18:09:21;99366.47;;;9.41;100.00
48352;BME280;34163;49.314;6.752;2023-12-29T18:11:47;99375.47;;;9.57;100.00
48352;BME280;34163;49.314;6.752;2023-12-29T18:14:15;99373.88;;;9.53;100.00
48352;BME280;34163;49.314;6.752;2023-12-29T18:16:41;99375.66;;;9.53;100.00
48352;BME280;34163;49.314;6.752;2023-12-29T18:19:06;99375.22;;;10.19;100.00
48352;BME280;34163;49.314;6.752;2023-12-29T18:21:31;99380.25;;;9.87;100.00
48352;BME280;34163;49.314;6.752;2023-12-29T18:23:59;99383.81;;;9.48;100.00
48352;BME280;34163;49.314;6.752;2023-12-29T18:26:24;99386.97;;;9.56;100.00
48352;BME280;34163;49.314;6.752;2023-12-29T18:28:49;99386.84;;;9.39;100.00
48352;BME280;34163;49.314;6.752;2023-12-29T18:31:15;99382.66;;;9.54;100.00
48352;BME280;34163;49.314;6.752;2023-12-29T18:33:43;99392.84;;;9.42;100.00
48352;BME280;34163;49.314;6.752;2023-12-29T18:36:09;99387.38;;;9.47;100.00
48352;BME280;34163;49.314;6.752;2023-12-29T18:38:34;99392.00;;;9.42;100.00
48352;BME280;34163;49.314;6.752;2023-12-29T18:41:03;99387.22;;;9.50;100.00
48352;BME280;34163;49.314;6.752;2023-12-29T18:43:29;99391.16;;;9.60;100.00
48352;BME280;34163;49.314;6.752;2023-12-29T18:45:54;99394.53;;;9.45;100.00
48352;BME280;34163;49.314;6.752;2023-12-29T18:48:20;99386.69;;;9.62;100.00
48352;BME280;34163;49.314;6.752;2023-12-29T18:50:45;99386.69;;;9.62;100.00
48352;BME280;34163;49.314;6.752;2023-12-29T18:53:10;99387.91;;;9.74;100.00
48352;BME280;34163;49.314;6.752;2023-12-29T18:55:38;99393.75;;;9.62;100.00
48352;BME280;34163;49.314;6.752;2023-12-29T18:58:09;99395.59;;;9.60;100.00
48352;BME280;34163;49.314;6.752;2023-12-29T19:00:34;99390.25;;;9.61;100.00
48352;BME280;34163;49.314;6.752;2023-12-29T19:03:00;99391.59;;;9.51;100.00
48352;BME280;34163;49.314;6.752;2023-12-29T19:05:25;99387.91;;;9.35;100.00
48352;BME280;34163;49.314;6.752;2023-12-29T19:07:50;99394.13;;;9.54;100.00
48352;BME280;34163;49.314;6.752;2023-12-29T19:10:15;99386.63;;;9.64;100.00
48352;BME280;34163;49.314;6.752;2023-12-29T19:12:43;99388.97;;;9.51;100.00
48352;BME280;34163;49.314;6.752;2023-12-29T19:15:12;99395.25;;;9.68;100.00
48352;BME280;34163;49.314;6.752;2023-12-29T19:17:37;99397.84;;;9.69;100.00
48352;BME280;34163;49.314;6.752;2023-12-29T19:20:03;99402.41;;;9.66;100.00
48352;BME280;34163;49.314;6.752;2023-12-29T19:22:29;99395.19;;;9.69;100.00
48352;BME280;34163;49.314;6.752;2023-12-29T19:24:54;99393.91;;;9.78;100.00
48352;BME280;34163;49.314;6.752;2023-12-29T19:27:19;99388.53;;;9.60;100.00
48352;BME280;34163;49.314;6.752;2023-12-29T19:29:44;99382.59;;;9.55;100.00
48352;BME280;34163;49.314;6.752;2023-12-29T19:32:10;99382.97;;;9.67;100.00
48352;BME280;34163;49.314;6.752;2023-12-29T19:34:35;99381.06;;;9.70;100.00
48352;BME280;34163;49.314;6.752;2023-12-29T19:37:01;99379.19;;;9.72;100.00